sensor_id;sensor_type;location;lat;lon;timestamp;P1;durP1;ratioP1;P2;durP2;ratioP2
10248;SDS011;5169;50.560;9.714;2022-09-11T00:00:47;4.83;;;4.03;;
10248;SDS011;5169;50.560;9.714;2022-09-11T00:03:17;6.17;;;3.70;;
10248;SDS011;5169;50.560;9.714;2022-09-11T00:05:48;6.10;;;5.50;;
10248;SDS011;5169;50.560;9.714;2022-09-11T00:08:15;6.00;;;4.50;;
10248;SDS011;5169;50.560;9.714;2022-09-11T00:10:45;6.40;;;5.50;;
10248;SDS011;5169;50.560;9.714;2022-09-11T00:13:19;9.73;;;7.67;;
10248;SDS011;5169;50.560;9.714;2022-09-11T00:15:48;16.23;;;13.60;;
10248;SDS011;5169;50.560;9.714;2022-09-11T00:18:16;14.67;;;12.90;;
10248;SDS011;5169;50.560;9.714;2022-09-11T00:20:53;11.80;;;10.57;;
10248;SDS011;5169;50.560;9.714;2022-09-11T00:23:21;8.00;;;5.87;;
10248;SDS011;5169;50.560;9.714;2022-09-11T00:25:50;5.00;;;4.50;;
10248;SDS011;5169;50.560;9.714;2022-09-11T00:28:22;3.73;;;3.43;;
10248;SDS011;5169;50.560;9.714;2022-09-11T00:31:03;4.00;;;3.63;;
10248;SDS011;5169;50.560;9.714;2022-09-11T00:33:36;3.60;;;3.30;;
10248;SDS011;5169;50.560;9.714;2022-09-11T00:36:05;5.17;;;3.40;;
10248;SDS011;5169;50.560;9.714;2022-09-11T00:38:37;4.27;;;3.87;;
10248;SDS011;5169;50.560;9.714;2022-09-11T00:41:05;4.23;;;3.80;;
10248;SDS011;5169;50.560;9.714;2022-09-11T00:54:39;4.03;;;3.73;;
10248;SDS011;5169;50.560;9.714;2022-09-11T00:57:15;4.37;;;4.00;;
10248;SDS011;5169;50.560;9.714;2022-09-11T00:59:42;4.80;;;4.30;;
10248;SDS011;5169;50.560;9.714;2022-09-11T01:02:11;5.57;;;4.43;;
10248;SDS011;5169;50.560;9.714;2022-09-11T01:04:43;6.43;;;5.50;;
10248;SDS011;5169;50.560;9.714;2022-09-11T01:07:11;5.30;;;4.90;;
10248;SDS011;5169;50.560;9.714;2022-09-11T01:09:39;5.57;;;4.43;;
10248;SDS011;5169;50.560;9.714;2022-09-11T01:14:54;5.03;;;3.93;;
10248;SDS011;5169;50.560;9.714;2022-09-11T01:17:26;4.80;;;3.70;;
10248;SDS011;5169;50.560;9.714;2022-09-11T01:20:19;3.10;;;2.90;;
10248;SDS011;5169;50.560;9.714;2022-09-11T01:28:12;2.20;;;2.00;;
10248;SDS011;5169;50.560;9.714;2022-09-11T01:30:45;2.37;;;2.17;;
10248;SDS011;5169;50.560;9.714;2022-09-11T01:36:16;2.87;;;2.60;;
10248;SDS011;5169;50.560;9.714;2022-09-11T01:38:54;2.70;;;2.47;;
10248;SDS011;5169;50.560;9.714;2022-09-11T01:41:26;3.57;;;2.70;;
10248;SDS011;5169;50.560;9.714;2022-09-11T01:46:28;2.70;;;2.50;;
10248;SDS011;5169;50.560;9.714;2022-09-11T01:49:07;5.80;;;2.80;;
10248;SDS011;5169;50.560;9.714;2022-09-11T01:51:45;1.97;;;1.77;;
10248;SDS011;5169;50.560;9.714;2022-09-11T01:54:16;1.97;;;1.80;;
10248;SDS011;5169;50.560;9.714;2022-09-11T01:56:49;1.70;;;1.60;;
10248;SDS011;5169;50.560;9.714;2022-09-11T01:59:22;1.80;;;1.70;;
10248;SDS011;5169;50.560;9.714;2022-09-11T02:01:56;2.03;;;1.93;;
10248;SDS011;5169;50.560;9.714;2022-09-11T02:04:32;4.13;;;2.60;;
10248;SDS011;5169;50.560;9.714;2022-09-11T02:07:06;2.97;;;2.73;;
10248;SDS011;5169;50.560;9.714;2022-09-11T02:09:58;2.77;;;2.57;;
10248;SDS011;5169;50.560;9.714;2022-09-11T02:12:27;3.77;;;2.50;;
10248;SDS011;5169;50.560;9.714;2022-09-11T02:15:03;2.70;;;2.50;;
10248;SDS011;5169;50.560;9.714;2022-09-11T02:17:46;2.67;;;2.47;;
10248;SDS011;5169;50.560;9.714;2022-09-11T02:20:25;2.60;;;2.33;;
10248;SDS011;5169;50.560;9.714;2022-09-11T02:22:52;3.17;;;2.83;;
10248;SDS011;5169;50.560;9.714;2022-09-11T02:25:18;2.70;;;2.50;;
10248;SDS011;5169;50.560;9.714;2022-09-11T02:27:44;3.30;;;2.30;;
10248;SDS011;5169;50.560;9.714;2022-09-11T02:30:12;2.60;;;2.40;;
10248;SDS011;5169;50.560;9.714;2022-09-11T02:32:40;2.60;;;2.30;;
10248;SDS011;5169;50.560;9.714;2022-09-11T02:35:10;2.67;;;2.47;;
10248;SDS011;5169;50.560;9.714;2022-09-11T02:43:25;3.70;;;3.40;;
10248;SDS011;5169;50.560;9.714;2022-09-11T02:57:35;5.80;;;5.20;;
10248;SDS011;5169;50.560;9.714;2022-09-11T03:00:11;6.60;;;4.77;;
10248;SDS011;5169;50.560;9.714;2022-09-11T03:02:38;6.90;;;5.33;;
10248;SDS011;5169;50.560;9.714;2022-09-11T03:05:08;7.00;;;6.23;;
10248;SDS011;5169;50.560;9.714;2022-09-11T03:07:35;7.63;;;6.40;;
10248;SDS011;5169;50.560;9.714;2022-09-11T03:10:00;7.53;;;6.50;;
10248;SDS011;5169;50.560;9.714;2022-09-11T03:12:28;7.17;;;6.43;;
10248;SDS011;5169;50.560;9.714;2022-09-11T03:14:55;6.90;;;6.20;;
10248;SDS011;5169;50.560;9.714;2022-09-11T03:17:21;7.93;;;6.33;;
10248;SDS011;5169;50.560;9.714;2022-09-11T03:19:47;6.13;;;5.50;;
10248;SDS011;5169;50.560;9.714;2022-09-11T03:22:13;7.67;;;6.90;;
10248;SDS011;5169;50.560;9.714;2022-09-11T03:24:41;7.77;;;7.07;;
10248;SDS011;5169;50.560;9.714;2022-09-11T03:27:09;7.60;;;6.67;;
10248;SDS011;5169;50.560;9.714;2022-09-11T03:29:35;7.30;;;6.43;;
10248;SDS011;5169;50.560;9.714;2022-09-11T03:32:01;10.03;;;7.33;;
10248;SDS011;5169;50.560;9.714;2022-09-11T03:34:30;8.63;;;6.87;;
10248;SDS011;5169;50.560;9.714;2022-09-11T03:36:55;7.10;;;6.40;;
10248;SDS011;5169;50.560;9.714;2022-09-11T03:39:21;8.00;;;6.50;;
10248;SDS011;5169;50.560;9.714;2022-09-11T03:41:47;7.47;;;6.67;;
10248;SDS011;5169;50.560;9.714;2022-09-11T03:44:12;6.47;;;5.87;;
10248;SDS011;5169;50.560;9.714;2022-09-11T03:46:41;6.90;;;6.20;;
10248;SDS011;5169;50.560;9.714;2022-09-11T03:49:07;8.57;;;6.87;;
10248;SDS011;5169;50.560;9.714;2022-09-11T03:51:33;7.03;;;6.27;;
10248;SDS011;5169;50.560;9.714;2022-09-11T03:53:59;8.60;;;7.13;;
10248;SDS011;5169;50.560;9.714;2022-09-11T03:56:28;11.23;;;7.40;;
10248;SDS011;5169;50.560;9.714;2022-09-11T03:58:54;9.37;;;7.60;;
10248;SDS011;5169;50.560;9.714;2022-09-11T04:01:24;9.97;;;7.63;;
10248;SDS011;5169;50.560;9.714;2022-09-11T04:03:53;11.03;;;9.00;;
10248;SDS011;5169;50.560;9.714;2022-09-11T04:06:21;12.10;;;9.00;;
10248;SDS011;5169;50.560;9.714;2022-09-11T04:08:47;9.27;;;8.37;;
10248;SDS011;5169;50.560;9.714;2022-09-11T04:11:13;14.23;;;10.03;;
10248;SDS011;5169;50.560;9.714;2022-09-11T04:13:39;10.63;;;9.53;;
10248;SDS011;5169;50.560;9.714;2022-09-11T04:16:13;13.40;;;9.87;;
10248;SDS011;5169;50.560;9.714;2022-09-11T04:18:43;12.70;;;9.17;;
10248;SDS011;5169;50.560;9.714;2022-09-11T04:21:14;9.73;;;8.70;;
10248;SDS011;5169;50.560;9.714;2022-09-11T04:23:42;10.00;;;8.50;;
10248;SDS011;5169;50.560;9.714;2022-09-11T04:26:13;11.47;;;10.27;;
10248;SDS011;5169;50.560;9.714;2022-09-11T04:28:41;11.80;;;9.63;;
10248;SDS011;5169;50.560;9.714;2022-09-11T04:31:07;12.43;;;9.97;;
10248;SDS011;5169;50.560;9.714;2022-09-11T04:33:33;12.40;;;10.20;;
10248;SDS011;5169;50.560;9.714;2022-09-11T04:36:07;12.87;;;10.20;;
10248;SDS011;5169;50.560;9.714;2022-09-11T04:38:34;14.00;;;11.23;;
10248;SDS011;5169;50.560;9.714;2022-09-11T04:41:02;15.90;;;11.83;;
10248;SDS011;5169;50.560;9.714;2022-09-11T04:43:34;13.60;;;11.23;;
10248;SDS011;5169;50.560;9.714;2022-09-11T04:46:01;18.93;;;13.67;;
10248;SDS011;5169;50.560;9.714;2022-09-11T04:48:41;17.77;;;13.07;;
10248;SDS011;5169;50.560;9.714;2022-09-11T04:51:26;17.20;;;12.37;;
10248;SDS011;5169;50.560;9.714;2022-09-11T04:53:54;18.63;;;14.23;;
10248;SDS011;5169;50.560;9.714;2022-09-11T04:56:27;20.53;;;15.37;;
10248;SDS011;5169;50.560;9.714;2022-09-11T04:58:55;21.73;;;14.33;;
10248;SDS011;5169;50.560;9.714;2022-09-11T05:01:25;20.17;;;15.37;;
10248;SDS011;5169;50.560;9.714;2022-09-11T05:03:56;19.93;;;15.37;;
10248;SDS011;5169;50.560;9.714;2022-09-11T05:06:26;23.30;;;17.23;;
10248;SDS011;5169;50.560;9.714;2022-09-11T05:08:55;21.60;;;16.87;;
10248;SDS011;5169;50.560;9.714;2022-09-11T05:11:25;22.67;;;16.63;;
10248;SDS011;5169;50.560;9.714;2022-09-11T05:13:51;26.40;;;17.27;;
10248;SDS011;5169;50.560;9.714;2022-09-11T05:16:19;24.00;;;17.53;;
10248;SDS011;5169;50.560;9.714;2022-09-11T05:18:48;22.77;;;17.77;;
10248;SDS011;5169;50.560;9.714;2022-09-11T05:21:15;21.17;;;16.83;;
10248;SDS011;5169;50.560;9.714;2022-09-11T05:23:45;24.47;;;18.70;;
10248;SDS011;5169;50.560;9.714;2022-09-11T05:26:19;26.90;;;19.20;;
10248;SDS011;5169;50.560;9.714;2022-09-11T05:28:46;28.53;;;20.13;;
10248;SDS011;5169;50.560;9.714;2022-09-11T05:31:15;27.50;;;20.70;;
10248;SDS011;5169;50.560;9.714;2022-09-11T05:33:45;28.13;;;20.93;;
10248;SDS011;5169;50.560;9.714;2022-09-11T05:36:11;30.80;;;20.90;;
10248;SDS011;5169;50.560;9.714;2022-09-11T05:38:41;33.57;;;21.80;;
10248;SDS011;5169;50.560;9.714;2022-09-11T05:41:08;30.93;;;21.30;;
10248;SDS011;5169;50.560;9.714;2022-09-11T05:43:35;32.30;;;21.17;;
10248;SDS011;5169;50.560;9.714;2022-09-11T05:46:02;28.03;;;20.97;;
10248;SDS011;5169;50.560;9.714;2022-09-11T05:48:29;26.10;;;19.70;;
10248;SDS011;5169;50.560;9.714;2022-09-11T05:50:59;28.40;;;21.13;;
10248;SDS011;5169;50.560;9.714;2022-09-11T05:53:29;31.50;;;21.90;;
10248;SDS011;5169;50.560;9.714;2022-09-11T05:55:57;24.63;;;19.20;;
10248;SDS011;5169;50.560;9.714;2022-09-11T05:58:30;29.33;;;22.20;;
10248;SDS011;5169;50.560;9.714;2022-09-11T06:01:02;27.80;;;20.87;;
10248;SDS011;5169;50.560;9.714;2022-09-11T06:03:32;24.83;;;19.03;;
10248;SDS011;5169;50.560;9.714;2022-09-11T06:06:10;25.63;;;19.90;;
10248;SDS011;5169;50.560;9.714;2022-09-11T06:08:37;27.23;;;20.70;;
10248;SDS011;5169;50.560;9.714;2022-09-11T06:11:06;24.47;;;19.07;;
10248;SDS011;5169;50.560;9.714;2022-09-11T06:13:35;23.30;;;18.77;;
10248;SDS011;5169;50.560;9.714;2022-09-11T06:16:14;22.33;;;18.00;;
10248;SDS011;5169;50.560;9.714;2022-09-11T06:18:42;24.57;;;19.50;;
10248;SDS011;5169;50.560;9.714;2022-09-11T06:21:09;25.80;;;19.23;;
10248;SDS011;5169;50.560;9.714;2022-09-11T06:23:36;21.60;;;17.67;;
10248;SDS011;5169;50.560;9.714;2022-09-11T06:26:05;23.40;;;18.50;;
10248;SDS011;5169;50.560;9.714;2022-09-11T06:28:33;25.00;;;18.67;;
10248;SDS011;5169;50.560;9.714;2022-09-11T06:31:00;25.33;;;19.00;;
10248;SDS011;5169;50.560;9.714;2022-09-11T06:33:34;25.30;;;19.07;;
10248;SDS011;5169;50.560;9.714;2022-09-11T06:36:02;21.70;;;18.23;;
10248;SDS011;5169;50.560;9.714;2022-09-11T06:38:29;23.17;;;18.67;;
10248;SDS011;5169;50.560;9.714;2022-09-11T06:40:56;20.27;;;17.37;;
10248;SDS011;5169;50.560;9.714;2022-09-11T06:43:23;21.03;;;17.93;;
10248;SDS011;5169;50.560;9.714;2022-09-11T06:45:49;22.30;;;18.93;;
10248;SDS011;5169;50.560;9.714;2022-09-11T06:48:16;23.50;;;18.40;;
10248;SDS011;5169;50.560;9.714;2022-09-11T06:50:44;22.67;;;18.73;;
10248;SDS011;5169;50.560;9.714;2022-09-11T06:53:10;22.63;;;18.23;;
10248;SDS011;5169;50.560;9.714;2022-09-11T06:55:39;22.77;;;18.13;;
10248;SDS011;5169;50.560;9.714;2022-09-11T06:58:05;26.10;;;19.93;;
10248;SDS011;5169;50.560;9.714;2022-09-11T07:00:32;24.60;;;18.97;;
10248;SDS011;5169;50.560;9.714;2022-09-11T07:03:01;22.27;;;18.97;;
10248;SDS011;5169;50.560;9.714;2022-09-11T07:05:28;23.80;;;19.30;;
10248;SDS011;5169;50.560;9.714;2022-09-11T07:07:54;23.20;;;18.17;;
10248;SDS011;5169;50.560;9.714;2022-09-11T07:10:21;22.70;;;18.57;;
10248;SDS011;5169;50.560;9.714;2022-09-11T07:12:51;23.63;;;18.23;;
10248;SDS011;5169;50.560;9.714;2022-09-11T07:15:18;20.63;;;17.20;;
10248;SDS011;5169;50.560;9.714;2022-09-11T07:17:47;19.77;;;17.60;;
10248;SDS011;5169;50.560;9.714;2022-09-11T07:20:15;22.17;;;17.70;;
10248;SDS011;5169;50.560;9.714;2022-09-11T07:22:44;26.13;;;18.83;;
10248;SDS011;5169;50.560;9.714;2022-09-11T07:25:10;26.67;;;20.50;;
10248;SDS011;5169;50.560;9.714;2022-09-11T07:27:36;24.83;;;19.80;;
10248;SDS011;5169;50.560;9.714;2022-09-11T07:30:08;22.73;;;18.13;;
10248;SDS011;5169;50.560;9.714;2022-09-11T07:32:36;25.73;;;20.53;;
10248;SDS011;5169;50.560;9.714;2022-09-11T07:35:03;24.57;;;20.27;;
10248;SDS011;5169;50.560;9.714;2022-09-11T07:37:29;28.20;;;21.07;;
10248;SDS011;5169;50.560;9.714;2022-09-11T07:39:55;27.40;;;21.37;;
10248;SDS011;5169;50.560;9.714;2022-09-11T07:42:23;27.83;;;21.23;;
10248;SDS011;5169;50.560;9.714;2022-09-11T07:44:48;25.83;;;20.20;;
10248;SDS011;5169;50.560;9.714;2022-09-11T07:47:16;25.30;;;20.47;;
10248;SDS011;5169;50.560;9.714;2022-09-11T07:49:44;21.77;;;18.40;;
10248;SDS011;5169;50.560;9.714;2022-09-11T07:52:15;22.67;;;19.40;;
10248;SDS011;5169;50.560;9.714;2022-09-11T07:54:44;24.77;;;19.53;;
10248;SDS011;5169;50.560;9.714;2022-09-11T07:57:11;23.07;;;17.87;;
10248;SDS011;5169;50.560;9.714;2022-09-11T07:59:36;26.67;;;20.27;;
10248;SDS011;5169;50.560;9.714;2022-09-11T08:02:04;24.17;;;18.70;;
10248;SDS011;5169;50.560;9.714;2022-09-11T08:04:31;22.60;;;19.00;;
10248;SDS011;5169;50.560;9.714;2022-09-11T08:06:59;26.47;;;20.00;;
10248;SDS011;5169;50.560;9.714;2022-09-11T08:09:25;24.00;;;19.53;;
10248;SDS011;5169;50.560;9.714;2022-09-11T08:11:51;27.37;;;20.37;;
10248;SDS011;5169;50.560;9.714;2022-09-11T08:14:22;25.27;;;19.63;;
10248;SDS011;5169;50.560;9.714;2022-09-11T08:16:49;24.93;;;20.57;;
10248;SDS011;5169;50.560;9.714;2022-09-11T08:19:19;26.73;;;21.07;;
10248;SDS011;5169;50.560;9.714;2022-09-11T08:21:46;25.53;;;19.53;;
10248;SDS011;5169;50.560;9.714;2022-09-11T08:24:13;24.30;;;19.43;;
10248;SDS011;5169;50.560;9.714;2022-09-11T08:26:41;23.83;;;18.83;;
10248;SDS011;5169;50.560;9.714;2022-09-11T08:29:07;23.07;;;18.47;;
10248;SDS011;5169;50.560;9.714;2022-09-11T08:31:33;21.27;;;18.30;;
10248;SDS011;5169;50.560;9.714;2022-09-11T08:33:59;19.47;;;16.83;;
10248;SDS011;5169;50.560;9.714;2022-09-11T08:36:25;21.63;;;18.60;;
10248;SDS011;5169;50.560;9.714;2022-09-11T08:38:51;19.00;;;16.97;;
10248;SDS011;5169;50.560;9.714;2022-09-11T08:43:47;21.97;;;18.53;;
10248;SDS011;5169;50.560;9.714;2022-09-11T08:46:16;21.23;;;18.07;;
10248;SDS011;5169;50.560;9.714;2022-09-11T08:51:31;21.17;;;17.13;;
10248;SDS011;5169;50.560;9.714;2022-09-11T08:53:58;18.70;;;16.70;;
10248;SDS011;5169;50.560;9.714;2022-09-11T08:56:27;21.13;;;17.67;;
10248;SDS011;5169;50.560;9.714;2022-09-11T09:07:16;17.07;;;15.27;;
10248;SDS011;5169;50.560;9.714;2022-09-11T09:18:04;16.37;;;14.60;;
10248;SDS011;5169;50.560;9.714;2022-09-11T09:20:35;17.30;;;15.53;;
10248;SDS011;5169;50.560;9.714;2022-09-11T09:23:11;17.93;;;14.87;;
10248;SDS011;5169;50.560;9.714;2022-09-11T09:25:45;17.97;;;15.07;;
10248;SDS011;5169;50.560;9.714;2022-09-11T09:28:20;18.40;;;14.23;;
10248;SDS011;5169;50.560;9.714;2022-09-11T09:31:03;15.73;;;14.10;;
10248;SDS011;5169;50.560;9.714;2022-09-11T09:33:33;15.50;;;13.90;;
10248;SDS011;5169;50.560;9.714;2022-09-11T09:36:45;14.53;;;13.03;;
10248;SDS011;5169;50.560;9.714;2022-09-11T09:38:59;12.87;;;11.57;;
10248;SDS011;5169;50.560;9.714;2022-09-11T09:47:07;13.30;;;11.90;;
10248;SDS011;5169;50.560;9.714;2022-09-11T09:49:38;12.43;;;11.23;;
10248;SDS011;5169;50.560;9.714;2022-09-11T09:52:15;12.47;;;11.17;;
10248;SDS011;5169;50.560;9.714;2022-09-11T09:55:01;13.30;;;11.33;;
10248;SDS011;5169;50.560;9.714;2022-09-11T09:57:34;13.20;;;11.80;;
10248;SDS011;5169;50.560;9.714;2022-09-11T10:00:14;13.27;;;11.73;;
10248;SDS011;5169;50.560;9.714;2022-09-11T10:02:46;13.60;;;11.70;;
10248;SDS011;5169;50.560;9.714;2022-09-11T10:08:06;12.40;;;11.20;;
10248;SDS011;5169;50.560;9.714;2022-09-11T10:10:53;12.13;;;11.03;;
10248;SDS011;5169;50.560;9.714;2022-09-11T10:13:23;11.80;;;10.70;;
10248;SDS011;5169;50.560;9.714;2022-09-11T10:15:52;11.50;;;10.30;;
10248;SDS011;5169;50.560;9.714;2022-09-11T10:24:07;11.23;;;10.13;;
10248;SDS011;5169;50.560;9.714;2022-09-11T10:26:50;11.27;;;10.13;;
10248;SDS011;5169;50.560;9.714;2022-09-11T10:34:19;9.83;;;8.90;;
10248;SDS011;5169;50.560;9.714;2022-09-11T10:36:54;9.27;;;8.23;;
10248;SDS011;5169;50.560;9.714;2022-09-11T10:39:24;8.90;;;8.07;;
10248;SDS011;5169;50.560;9.714;2022-09-11T10:41:55;8.77;;;7.80;;
10248;SDS011;5169;50.560;9.714;2022-09-11T10:44:30;8.27;;;6.87;;
10248;SDS011;5169;50.560;9.714;2022-09-11T10:47:02;7.70;;;6.87;;
10248;SDS011;5169;50.560;9.714;2022-09-11T10:49:30;8.97;;;6.80;;
10248;SDS011;5169;50.560;9.714;2022-09-11T10:52:15;6.60;;;5.87;;
10248;SDS011;5169;50.560;9.714;2022-09-11T11:00:03;6.83;;;6.03;;
10248;SDS011;5169;50.560;9.714;2022-09-11T11:02:52;6.23;;;5.63;;
10248;SDS011;5169;50.560;9.714;2022-09-11T11:24:47;8.30;;;6.10;;
10248;SDS011;5169;50.560;9.714;2022-09-11T11:35:42;8.33;;;6.57;;
10248;SDS011;5169;50.560;9.714;2022-09-11T11:40:54;5.20;;;4.70;;
10248;SDS011;5169;50.560;9.714;2022-09-11T11:43:50;6.47;;;5.50;;
10248;SDS011;5169;50.560;9.714;2022-09-11T11:46:30;5.68;;;4.45;;
10248;SDS011;5169;50.560;9.714;2022-09-11T11:49:19;6.95;;;4.60;;
10248;SDS011;5169;50.560;9.714;2022-09-11T11:55:06;4.28;;;3.88;;
10248;SDS011;5169;50.560;9.714;2022-09-11T11:57:55;5.80;;;5.28;;
10248;SDS011;5169;50.560;9.714;2022-09-11T12:00:32;5.57;;;5.07;;
10248;SDS011;5169;50.560;9.714;2022-09-11T12:03:25;6.38;;;4.95;;
10248;SDS011;5169;50.560;9.714;2022-09-11T12:05:57;6.60;;;5.33;;
10248;SDS011;5169;50.560;9.714;2022-09-11T12:08:23;5.83;;;5.33;;
10248;SDS011;5169;50.560;9.714;2022-09-11T12:10:53;5.57;;;5.07;;
10248;SDS011;5169;50.560;9.714;2022-09-11T12:13:33;5.33;;;4.90;;
10248;SDS011;5169;50.560;9.714;2022-09-11T12:21:41;6.53;;;5.93;;
10248;SDS011;5169;50.560;9.714;2022-09-11T12:24:22;5.73;;;4.90;;
10248;SDS011;5169;50.560;9.714;2022-09-11T12:32:40;5.33;;;4.70;;
10248;SDS011;5169;50.560;9.714;2022-09-11T12:43:16;4.40;;;4.00;;
10248;SDS011;5169;50.560;9.714;2022-09-11T12:45:56;4.40;;;4.00;;
10248;SDS011;5169;50.560;9.714;2022-09-11T12:51:16;4.93;;;4.43;;
10248;SDS011;5169;50.560;9.714;2022-09-11T12:53:50;6.63;;;4.77;;
10248;SDS011;5169;50.560;9.714;2022-09-11T12:56:19;5.33;;;4.57;;
10248;SDS011;5169;50.560;9.714;2022-09-11T12:58:57;5.67;;;5.10;;
10248;SDS011;5169;50.560;9.714;2022-09-11T13:01:28;5.73;;;5.23;;
10248;SDS011;5169;50.560;9.714;2022-09-11T13:06:59;6.90;;;5.17;;
10248;SDS011;5169;50.560;9.714;2022-09-11T13:09:39;5.83;;;4.13;;
10248;SDS011;5169;50.560;9.714;2022-09-11T13:17:24;4.23;;;3.83;;
10248;SDS011;5169;50.560;9.714;2022-09-11T13:22:29;5.07;;;3.70;;
10248;SDS011;5169;50.560;9.714;2022-09-11T13:27:35;4.03;;;3.33;;
10248;SDS011;5169;50.560;9.714;2022-09-11T13:30:03;5.13;;;3.40;;
10248;SDS011;5169;50.560;9.714;2022-09-11T13:32:35;3.87;;;3.47;;
10248;SDS011;5169;50.560;9.714;2022-09-11T13:35:05;6.17;;;4.03;;
10248;SDS011;5169;50.560;9.714;2022-09-11T13:40:36;3.63;;;3.33;;
10248;SDS011;5169;50.560;9.714;2022-09-11T13:43:18;3.97;;;3.50;;
10248;SDS011;5169;50.560;9.714;2022-09-11T13:49:12;5.73;;;4.00;;
10248;SDS011;5169;50.560;9.714;2022-09-11T13:51:47;5.23;;;4.33;;
10248;SDS011;5169;50.560;9.714;2022-09-11T13:57:15;4.00;;;3.27;;
10248;SDS011;5169;50.560;9.714;2022-09-11T14:05:26;3.03;;;2.73;;
10248;SDS011;5169;50.560;9.714;2022-09-11T14:15:38;3.43;;;2.70;;
10248;SDS011;5169;50.560;9.714;2022-09-11T14:18:49;3.23;;;2.93;;
10248;SDS011;5169;50.560;9.714;2022-09-11T14:21:04;3.87;;;2.63;;
10248;SDS011;5169;50.560;9.714;2022-09-11T14:23:41;3.33;;;2.77;;
10248;SDS011;5169;50.560;9.714;2022-09-11T14:28:44;3.13;;;2.93;;
10248;SDS011;5169;50.560;9.714;2022-09-11T14:39:43;3.60;;;2.60;;
10248;SDS011;5169;50.560;9.714;2022-09-11T14:42:21;2.87;;;2.53;;
10248;SDS011;5169;50.560;9.714;2022-09-11T14:44:48;5.10;;;2.97;;
10248;SDS011;5169;50.560;9.714;2022-09-11T14:47:15;3.10;;;2.50;;
10248;SDS011;5169;50.560;9.714;2022-09-11T14:49:46;2.90;;;2.60;;
10248;SDS011;5169;50.560;9.714;2022-09-11T14:52:17;2.60;;;2.40;;
10248;SDS011;5169;50.560;9.714;2022-09-11T14:54:49;3.00;;;2.70;;
10248;SDS011;5169;50.560;9.714;2022-09-11T14:57:28;2.67;;;2.40;;
10248;SDS011;5169;50.560;9.714;2022-09-11T14:59:56;2.83;;;2.63;;
10248;SDS011;5169;50.560;9.714;2022-09-11T15:02:25;2.83;;;2.63;;
10248;SDS011;5169;50.560;9.714;2022-09-11T15:04:55;3.20;;;2.90;;
10248;SDS011;5169;50.560;9.714;2022-09-11T15:07:22;4.77;;;2.70;;
10248;SDS011;5169;50.560;9.714;2022-09-11T15:09:49;3.00;;;2.70;;
10248;SDS011;5169;50.560;9.714;2022-09-11T15:12:16;4.87;;;2.80;;
10248;SDS011;5169;50.560;9.714;2022-09-11T15:14:42;2.40;;;2.20;;
10248;SDS011;5169;50.560;9.714;2022-09-11T15:17:12;2.70;;;2.30;;
10248;SDS011;5169;50.560;9.714;2022-09-11T15:19:40;3.03;;;2.60;;
10248;SDS011;5169;50.560;9.714;2022-09-11T15:22:11;3.23;;;2.87;;
10248;SDS011;5169;50.560;9.714;2022-09-11T15:24:37;5.57;;;2.97;;
10248;SDS011;5169;50.560;9.714;2022-09-11T15:27:06;3.33;;;2.70;;
10248;SDS011;5169;50.560;9.714;2022-09-11T15:29:34;4.20;;;2.97;;
10248;SDS011;5169;50.560;9.714;2022-09-11T15:32:05;4.47;;;2.80;;
10248;SDS011;5169;50.560;9.714;2022-09-11T15:34:34;2.93;;;2.63;;
10248;SDS011;5169;50.560;9.714;2022-09-11T15:37:00;5.00;;;2.60;;
10248;SDS011;5169;50.560;9.714;2022-09-11T15:39:26;4.57;;;2.43;;
10248;SDS011;5169;50.560;9.714;2022-09-11T15:41:53;2.73;;;2.50;;
10248;SDS011;5169;50.560;9.714;2022-09-11T15:44:20;3.27;;;2.90;;
10248;SDS011;5169;50.560;9.714;2022-09-11T15:46:52;2.97;;;2.63;;
10248;SDS011;5169;50.560;9.714;2022-09-11T15:49:20;3.10;;;2.80;;
10248;SDS011;5169;50.560;9.714;2022-09-11T15:51:47;3.67;;;2.83;;
10248;SDS011;5169;50.560;9.714;2022-09-11T15:54:14;2.77;;;2.50;;
10248;SDS011;5169;50.560;9.714;2022-09-11T15:56:40;2.90;;;2.70;;
10248;SDS011;5169;50.560;9.714;2022-09-11T15:59:08;2.87;;;2.60;;
10248;SDS011;5169;50.560;9.714;2022-09-11T16:01:39;3.03;;;2.73;;
10248;SDS011;5169;50.560;9.714;2022-09-11T16:04:07;5.07;;;2.40;;
10248;SDS011;5169;50.560;9.714;2022-09-11T16:06:36;2.83;;;2.53;;
10248;SDS011;5169;50.560;9.714;2022-09-11T16:09:07;3.20;;;2.60;;
10248;SDS011;5169;50.560;9.714;2022-09-11T16:11:36;2.93;;;2.67;;
10248;SDS011;5169;50.560;9.714;2022-09-11T16:14:04;2.93;;;2.67;;
10248;SDS011;5169;50.560;9.714;2022-09-11T16:16:29;2.60;;;2.40;;
10248;SDS011;5169;50.560;9.714;2022-09-11T16:18:57;2.53;;;2.33;;
10248;SDS011;5169;50.560;9.714;2022-09-11T16:21:25;4.30;;;2.70;;
10248;SDS011;5169;50.560;9.714;2022-09-11T16:23:52;4.67;;;2.20;;
10248;SDS011;5169;50.560;9.714;2022-09-11T16:26:19;3.43;;;2.60;;
10248;SDS011;5169;50.560;9.714;2022-09-11T16:28:48;2.50;;;2.30;;
10248;SDS011;5169;50.560;9.714;2022-09-11T16:31:15;2.90;;;2.40;;
10248;SDS011;5169;50.560;9.714;2022-09-11T16:33:41;4.00;;;2.63;;
10248;SDS011;5169;50.560;9.714;2022-09-11T16:36:12;2.47;;;2.27;;
10248;SDS011;5169;50.560;9.714;2022-09-11T16:38:42;2.50;;;2.30;;
10248;SDS011;5169;50.560;9.714;2022-09-11T16:41:16;2.43;;;2.23;;
10248;SDS011;5169;50.560;9.714;2022-09-11T16:43:44;2.57;;;2.33;;
10248;SDS011;5169;50.560;9.714;2022-09-11T16:46:22;4.07;;;2.20;;
10248;SDS011;5169;50.560;9.714;2022-09-11T16:48:49;2.57;;;2.17;;
10248;SDS011;5169;50.560;9.714;2022-09-11T16:51:18;2.50;;;2.30;;
10248;SDS011;5169;50.560;9.714;2022-09-11T16:53:44;3.23;;;2.17;;
10248;SDS011;5169;50.560;9.714;2022-09-11T16:56:14;2.40;;;2.20;;
10248;SDS011;5169;50.560;9.714;2022-09-11T16:58:41;2.50;;;2.00;;
10248;SDS011;5169;50.560;9.714;2022-09-11T17:01:12;3.17;;;2.07;;
10248;SDS011;5169;50.560;9.714;2022-09-11T17:03:42;2.33;;;2.13;;
10248;SDS011;5169;50.560;9.714;2022-09-11T17:06:09;2.20;;;2.00;;
10248;SDS011;5169;50.560;9.714;2022-09-11T17:08:38;2.93;;;2.23;;
10248;SDS011;5169;50.560;9.714;2022-09-11T17:11:09;3.50;;;2.03;;
10248;SDS011;5169;50.560;9.714;2022-09-11T17:13:37;2.20;;;2.00;;
10248;SDS011;5169;50.560;9.714;2022-09-11T17:16:11;2.83;;;2.00;;
10248;SDS011;5169;50.560;9.714;2022-09-11T17:18:48;2.30;;;2.00;;
10248;SDS011;5169;50.560;9.714;2022-09-11T17:21:17;2.87;;;2.17;;
10248;SDS011;5169;50.560;9.714;2022-09-11T17:23:43;2.20;;;2.00;;
10248;SDS011;5169;50.560;9.714;2022-09-11T17:26:10;2.53;;;2.33;;
10248;SDS011;5169;50.560;9.714;2022-09-11T17:28:38;2.17;;;1.97;;
10248;SDS011;5169;50.560;9.714;2022-09-11T17:31:05;3.10;;;2.00;;
10248;SDS011;5169;50.560;9.714;2022-09-11T17:33:34;2.50;;;2.30;;
10248;SDS011;5169;50.560;9.714;2022-09-11T17:36:04;2.40;;;2.07;;
10248;SDS011;5169;50.560;9.714;2022-09-11T17:38:33;3.70;;;2.17;;
10248;SDS011;5169;50.560;9.714;2022-09-11T17:41:03;2.60;;;2.40;;
10248;SDS011;5169;50.560;9.714;2022-09-11T17:43:33;2.67;;;2.33;;
10248;SDS011;5169;50.560;9.714;2022-09-11T17:46:12;3.00;;;2.30;;
10248;SDS011;5169;50.560;9.714;2022-09-11T17:48:40;2.43;;;2.23;;
10248;SDS011;5169;50.560;9.714;2022-09-11T17:51:10;2.53;;;2.33;;
10248;SDS011;5169;50.560;9.714;2022-09-11T17:53:45;2.40;;;2.20;;
10248;SDS011;5169;50.560;9.714;2022-09-11T17:56:18;3.63;;;2.70;;
10248;SDS011;5169;50.560;9.714;2022-09-11T17:58:52;2.90;;;2.60;;
10248;SDS011;5169;50.560;9.714;2022-09-11T18:01:20;3.10;;;2.80;;
10248;SDS011;5169;50.560;9.714;2022-09-11T18:03:52;2.70;;;2.50;;
10248;SDS011;5169;50.560;9.714;2022-09-11T18:08:49;3.80;;;2.70;;
10248;SDS011;5169;50.560;9.714;2022-09-11T18:11:15;2.63;;;2.43;;
10248;SDS011;5169;50.560;9.714;2022-09-11T18:13:43;2.80;;;2.60;;
10248;SDS011;5169;50.560;9.714;2022-09-11T18:16:09;3.00;;;2.70;;
10248;SDS011;5169;50.560;9.714;2022-09-11T18:18:38;3.30;;;3.00;;
10248;SDS011;5169;50.560;9.714;2022-09-11T18:21:04;3.63;;;3.23;;
10248;SDS011;5169;50.560;9.714;2022-09-11T18:23:34;2.93;;;2.57;;